Elkhart, IN

4:53 AM EST on February 11, 2016 (GMT -0500)
East Jackson Blvd | | Change Station
CLOSE
Current Station
Personal Weather Station
Location: Elkhart, IN
Elevation: 753 ft
Nearby Weather Stations
Active Advisory: Winter Weather Advisory Active Notice: Record Report, Local Storm Report

Elev 753 ft 41.69 °N, 85.94 °W | Updated 8 seconds ago

Overcast
Overcast
15.1 °F
Feels Like 10 °F
N
3.1
Wind Variable Wind from NW
Gusts 3.1 mph

Today
High -- | Low -- °F
--% Chance of Precip.
Yesterday
High -- | Low -- °F
Precip. -- in
Pressure 30.11 in
Visibility 3.0 miles
Clouds Scattered Clouds 1900 ft
Mostly Cloudy 3000 ft
Overcast 5500 ft
Windchill 10 °F
Dew Point 9 °F
Humidity 76%
Rainfall 0.00 in
Snow Depth Not available.
7:45 AM 6:11 PM
Waxing Crescent, 11% visible
SPECI KGSH 110905Z AUTO 28007KT 3SM -SN BR SCT019 BKN030 OVC055 M10/M12 A3011 RMK AO2 P0000 T11001122
Pressure 30.11 in
Visibility 3.0 miles
Clouds Scattered Clouds 1900 ft
Mostly Cloudy 3000 ft
Overcast 5500 ft
Windchill 10 °F
Dew Point 9 °F
Humidity 76%
Rainfall 0.00 in
Snow Depth Not available.
7:45 AM 6:11 PM
Waxing Crescent, 11% visible
SPECI KGSH 110905Z AUTO 28007KT 3SM -SN BR SCT019 BKN030 OVC055 M10/M12 A3011 RMK AO2 P0000 T11001122

10-Day Weather Forecast

Almanac

Astronomy

Feb. 11, 2016 Rise Set
Actual Time
Civil Twilight
Nautical Twilight
Astronomical Twilight
Moon
Length of Visible Light
Length of Day
Tomorrow will be .
, % of the Moon is Illuminated

Today's Extremes

State Highs State Lows

Community

WunderPhotos

Upload Photos

1,892,030 photos uploaded!

WunderBlog® & News

Nearby

Air Quality

  Air Quality AQ Index Pollutant
Not available.

Snow Depth

Station Depth Elevation

Earthquake Activity

City Distance Mag. Time & Date
Minimum magnitude displayed is 2.5.

Coastal Water Temperatures

Place Temperature

Stations

Nearby Weather Stations

Station Location Temp. Windchill Dew Point Humidity Wind Precip. Elev Updated Type
                   

Watches & Warnings

Winter Weather Advisory
Issued: 2:28 AM CST Feb. 11, 2016 – National Weather Service

... Winter Weather Advisory remains in effect until 10 am EST
/9 am CST/ this morning...

Hazardous weather...

* lake effect snow showers will continue this morning.

* Additional snow accumulations of 1 to 2 inches will be
   possible where bands are most persistent.

Impacts...

* untreated roads will be snow covered... slick and hazardous. In
   addition... low visibilities in the lake effect snow bands will
   result in difficult and dangerous travel.

Precautionary/preparedness actions...

A Winter Weather Advisory for lake effect snow means that
visibilities will be limited due to bursts of heavy snow and
blowing snow. Use caution when traveling.